Time;durP1;ratioP1;P1;durP2;ratioP2;P2;SDS_P1;SDS_P2;PMS_P1;PMS_P2;Temp;Humidity;BMP_temperature;BMP_pressure;BME280_temperature;BME280_humidity;BME280_pressure;Samples;Min_cycle;Max_cycle;Signal;HPM_P1;HPM_P2
2022/09/12 00:01:15;;;;;;;1.50;1.40;;;;;;;12.76;100.00;98482.81;1729719;83;20979;-73
2022/09/12 00:03:43;;;;;;;1.62;1.37;;;;;;;12.75;100.00;98481.14;1729781;83;21483;-73
2022/09/12 00:06:17;;;;;;;1.20;1.20;;;;;;;12.71;100.00;98474.45;1729709;83;21466;-73
2022/09/12 00:08:44;;;;;;;2.25;1.40;;;;;;;12.68;100.00;98479.39;1726893;83;20951;-73
2022/09/12 00:11:11;;;;;;;3.05;1.27;;;;;;;12.66;100.00;98473.44;1729739;83;21537;-73
2022/09/12 00:13:40;;;;;;;1.52;1.40;;;;;;;12.62;100.00;98480.25;1729754;82;21022;-73
2022/09/12 00:16:17;;;;;;;2.75;1.80;;;;;;;12.58;100.00;98480.95;1729865;82;20975;-73
2022/09/12 00:18:45;;;;;;;1.10;1.10;;;;;;;12.55;100.00;98477.23;1726967;82;21499;-72
2022/09/12 00:21:15;;;;;;;1.52;1.42;;;;;;;12.54;100.00;98478.63;1729815;82;20947;-73
2022/09/12 00:23:42;;;;;;;1.77;1.67;;;;;;;12.54;100.00;98482.08;1729769;82;21507;-72
2022/09/12 00:26:08;;;;;;;1.70;1.57;;;;;;;12.56;100.00;98492.41;1729788;83;20948;-73
2022/09/12 00:28:37;;;;;;;1.80;1.70;;;;;;;12.56;100.00;98482.82;1729716;82;21579;-72
2022/09/12 00:31:07;;;;;;;1.60;1.47;;;;;;;12.56;100.00;98478.07;1729721;83;21003;-72
2022/09/12 00:33:34;;;;;;;1.27;1.17;;;;;;;12.58;100.00;98478.81;1729888;82;21042;-72
2022/09/12 00:36:09;;;;;;;2.55;1.60;;;;;;;12.59;100.00;98473.96;1729747;82;21151;-73
2022/09/12 00:38:40;;;;;;;1.80;1.52;;;;;;;12.60;100.00;98471.69;1729537;82;20948;-73
2022/09/12 00:41:05;;;;;;;4.42;1.85;;;;;;;12.60;100.00;98466.47;1729517;82;21455;-73
2022/09/12 00:43:42;;;;;;;2.30;1.57;;;;;;;12.61;100.00;98473.36;1729426;83;20995;-73
2022/09/12 00:46:35;;;;;;;2.12;1.30;;;;;;;12.63;100.00;98472.33;1729682;82;21227;-73
2022/09/12 00:49:21;;;;;;;1.30;1.30;;;;;;;12.66;100.00;98473.91;1729687;83;21506;-71
2022/09/12 00:51:55;;;;;;;1.75;1.60;;;;;;;12.67;100.00;98464.67;1710522;83;20952;-73
2022/09/12 00:54:25;;;;;;;6.05;1.85;;;;;;;12.69;100.00;98462.81;1727405;83;21019;-71
2022/09/12 00:56:54;;;;;;;2.05;1.60;;;;;;;12.71;100.00;98453.11;1729561;82;21534;-73
2022/09/12 00:59:24;;;;;;;2.47;1.47;;;;;;;12.73;100.00;98456.92;1729559;82;21494;-73
2022/09/12 01:01:51;;;;;;;2.02;1.62;;;;;;;12.76;100.00;98457.56;1729531;83;21854;-72
2022/09/12 01:04:20;;;;;;;5.22;1.70;;;;;;;12.80;100.00;98456.03;1708592;83;21423;-72
2022/09/12 01:06:47;;;;;;;2.10;1.90;;;;;;;12.83;100.00;98456.66;1729463;82;21041;-72
2022/09/12 01:09:18;;;;;;;1.50;1.40;;;;;;;12.87;100.00;98451.61;1729446;83;20984;-72
2022/09/12 01:11:45;;;;;;;1.98;1.40;;;;;;;12.90;100.00;98449.27;1708822;83;21010;-72
2022/09/12 01:14:13;;;;;;;1.92;1.80;;;;;;;12.92;100.00;98457.84;1729448;82;21121;-72
2022/09/12 01:16:41;;;;;;;2.02;1.90;;;;;;;12.92;100.00;98459.14;1729388;83;21038;-72
2022/09/12 01:19:45;;;;;;;2.40;1.60;;;;;;;12.92;100.00;98460.45;1729417;82;20999;-72
2022/09/12 01:22:57;;;;;;;1.98;1.80;;;;;;;12.90;100.00;98455.80;1729544;83;21488;-71
2022/09/12 01:25:42;;;;;;;2.22;1.90;;;;;;;12.88;100.00;98451.14;1729417;83;21463;-73
2022/09/12 01:28:53;;;;;;;2.42;1.92;;;;;;;12.85;100.00;98455.27;1728782;83;21123;-71
2022/09/12 01:31:42;;;;;;;2.40;2.20;;;;;;;12.82;100.00;98451.08;1729363;82;21569;-71
2022/09/12 01:34:27;;;;;;;2.55;1.90;;;;;;;12.82;100.00;98451.55;1729774;82;20975;-73
2022/09/12 01:37:08;;;;;;;1.77;1.67;;;;;;;12.82;100.00;98451.55;1729477;82;21035;-72
2022/09/12 01:39:49;;;;;;;2.17;2.02;;;;;;;12.81;100.00;98446.80;1729597;82;20956;-72
2022/09/12 01:42:47;;;;;;;2.62;1.90;;;;;;;12.82;100.00;98446.33;1672244;82;21818;-72
2022/09/12 01:45:33;;;;;;;2.27;2.08;;;;;;;12.81;100.00;98444.19;1729251;82;21058;-72
2022/09/12 01:48:19;;;;;;;1.65;1.55;;;;;;;12.80;100.00;98444.28;1729514;82;21051;-72
2022/09/12 01:50:53;;;;;;;1.47;1.25;;;;;;;12.79;100.00;98447.86;1729484;83;20963;-72
2022/09/12 01:53:25;;;;;;;1.92;1.30;;;;;;;12.76;100.00;98456.72;1720171;83;21038;-72
2022/09/12 01:56:13;;;;;;;4.83;1.72;;;;;;;12.73;100.00;98451.70;1729517;83;21239;-72
2022/09/12 01:58:50;;;;;;;2.08;1.32;;;;;;;12.70;100.00;98444.91;1700507;83;20944;-72
2022/09/12 02:01:28;;;;;;;2.65;1.87;;;;;;;12.70;100.00;98451.91;1729389;82;20987;-72
2022/09/12 02:04:12;;;;;;;1.02;1.02;;;;;;;12.71;100.00;98452.27;1729444;83;21010;-72
2022/09/12 02:06:48;;;;;;;1.05;1.02;;;;;;;12.69;100.00;98452.38;1729609;83;20960;-72
2022/09/12 02:09:29;;;;;;;1.25;1.15;;;;;;;12.66;100.00;98455.18;1729448;83;21770;-72
2022/09/12 02:11:58;;;;;;;1.10;1.10;;;;;;;12.63;100.00;98450.62;1729445;82;20940;-72
2022/09/12 02:14:30;;;;;;;0.70;0.70;;;;;;;12.59;100.00;98448.68;1729440;82;21003;-72
2022/09/12 02:17:01;;;;;;;1.43;0.60;;;;;;;12.52;100.00;98447.44;1729933;83;20999;-72
2022/09/12 02:20:13;;;;;;;0.62;0.62;;;;;;;12.52;100.00;98447.44;1729454;82;21302;-72
2022/09/12 02:22:39;;;;;;;0.60;0.60;;;;;;;12.47;100.00;98448.19;1729578;82;21146;-72
2022/09/12 02:25:07;;;;;;;2.00;0.80;;;;;;;12.40;100.00;98455.57;1729463;83;21061;-72
2022/09/12 02:27:48;;;;;;;1.80;0.60;;;;;;;12.36;100.00;98453.28;1729430;82;21035;-72
2022/09/12 02:30:16;;;;;;;0.40;0.40;;;;;;;12.32;100.00;98450.50;1729386;83;21007;-72
2022/09/12 02:32:51;;;;;;;0.50;0.50;;;;;;;12.31;100.00;98454.05;1729521;83;21014;-72
2022/09/12 02:36:01;;;;;;;0.50;0.50;;;;;;;12.28;100.00;98449.86;1729646;82;21219;-72
2022/09/12 02:38:38;;;;;;;0.50;0.50;;;;;;;12.27;100.00;98450.79;1726111;83;20995;-72
2022/09/12 02:41:04;;;;;;;1.20;0.40;;;;;;;12.27;100.00;98451.26;1729373;82;20960;-72
2022/09/12 02:43:32;;;;;;;0.30;0.30;;;;;;;12.26;100.00;98453.03;1729481;82;21038;-72
2022/09/12 02:45:58;;;;;;;2.40;0.42;;;;;;;12.25;100.00;98453.96;1729474;83;20963;-72
2022/09/12 02:48:29;;;;;;;0.82;0.50;;;;;;;12.24;100.00;98453.59;1729432;83;21178;-72
2022/09/12 02:50:56;;;;;;;2.10;0.60;;;;;;;12.25;100.00;98455.73;1729376;83;20951;-72
2022/09/12 02:53:24;;;;;;;0.60;0.30;;;;;;;12.25;100.00;98459.64;1729413;82;21063;-72
2022/09/12 02:55:51;;;;;;;0.20;0.20;;;;;;;12.22;100.00;98465.88;1729375;82;21030;-72
2022/09/12 02:58:24;;;;;;;0.68;0.30;;;;;;;12.18;100.00;98462.29;1704939;83;21006;-72
2022/09/12 03:01:13;;;;;;;0.23;0.20;;;;;;;12.15;100.00;98469.84;1729522;83;21145;-72
2022/09/12 03:04:29;;;;;;;0.68;0.33;;;;;;;12.10;100.00;98467.98;1708752;83;21026;-72
2022/09/12 03:07:17;;;;;;;0.13;0.13;;;;;;;12.05;100.00;98461.75;1729571;82;21002;-73
2022/09/12 03:09:48;;;;;;;0.80;0.20;;;;;;;12.02;100.00;98467.62;1729627;82;20998;-73
2022/09/12 03:12:42;;;;;;;3.40;0.45;;;;;;;11.99;100.00;98461.33;1729684;83;20935;-73
2022/09/12 03:15:39;;;;;;;0.20;0.20;;;;;;;11.97;100.00;98455.37;1708892;83;21691;-73
2022/09/12 03:18:32;;;;;;;1.00;0.30;;;;;;;11.95;100.00;98463.74;1729511;82;21051;-71
2022/09/12 03:21:10;;;;;;;5.22;0.40;;;;;;;11.91;100.00;98459.19;1728576;82;20999;-73
2022/09/12 03:23:44;;;;;;;0.23;0.20;;;;;;;11.88;99.96;98460.67;1729670;83;21025;-71
2022/09/12 03:26:19;;;;;;;0.53;0.20;;;;;;;11.85;99.64;98455.66;1729575;83;21045;-71
2022/09/12 03:28:45;;;;;;;0.57;0.30;;;;;;;11.82;99.64;98464.13;1704930;83;21143;-71
2022/09/12 03:31:17;;;;;;;1.55;0.20;;;;;;;11.79;99.94;98460.44;1729596;82;20991;-71
2022/09/12 03:33:44;;;;;;;0.65;0.20;;;;;;;11.78;100.00;98461.36;1729711;83;21050;-72
2022/09/12 03:36:18;;;;;;;0.50;0.30;;;;;;;11.76;100.00;98456.68;1729486;83;21003;-72
2022/09/12 03:38:44;;;;;;;0.25;0.20;;;;;;;11.73;100.00;98455.94;1729121;83;20994;-72
2022/09/12 03:41:11;;;;;;;0.88;0.28;;;;;;;11.72;100.00;98465.98;1729613;82;21633;-72
2022/09/12 03:43:38;;;;;;;0.40;0.30;;;;;;;11.71;100.00;98471.28;1729662;82;20944;-72
2022/09/12 03:46:04;;;;;;;0.20;0.20;;;;;;;11.70;100.00;98474.35;1729833;82;21012;-72
2022/09/12 03:48:32;;;;;;;2.05;0.55;;;;;;;11.68;100.00;98467.09;1729763;83;21046;-72
2022/09/12 03:51:04;;;;;;;0.88;0.30;;;;;;;11.67;100.00;98469.33;1729813;83;21002;-72
2022/09/12 03:53:31;;;;;;;0.35;0.35;;;;;;;11.65;100.00;98460.77;1729927;83;21779;-72
2022/09/12 03:55:57;;;;;;;0.30;0.30;;;;;;;11.65;100.00;98468.58;1729672;83;21447;-73
2022/09/12 03:58:24;;;;;;;0.75;0.65;;;;;;;11.62;100.00;98470.06;1729865;83;21006;-72
2022/09/12 04:00:50;;;;;;;0.40;0.40;;;;;;;11.59;100.00;98478.06;1729801;82;21035;-72
2022/09/12 04:03:18;;;;;;;0.65;0.60;;;;;;;11.57;100.00;98478.66;1729860;83;20963;-72
2022/09/12 04:05:46;;;;;;;0.60;0.60;;;;;;;11.56;100.00;98483.95;1729722;83;21541;-72
2022/09/12 04:08:13;;;;;;;0.78;0.70;;;;;;;11.55;100.00;98474.46;1729769;82;20947;-72
2022/09/12 04:10:40;;;;;;;2.52;0.88;;;;;;;11.53;100.00;98471.95;1709350;83;21047;-72
2022/09/12 04:13:07;;;;;;;0.90;0.40;;;;;;;11.54;100.00;98467.58;1729778;82;21010;-72
2022/09/12 04:15:34;;;;;;;1.10;0.50;;;;;;;11.53;100.00;98466.74;1729783;82;21011;-72
2022/09/12 04:18:01;;;;;;;1.17;0.78;;;;;;;11.54;100.00;98472.79;1729844;82;21145;-72
2022/09/12 04:20:27;;;;;;;0.57;0.42;;;;;;;11.55;100.00;98470.09;1729762;83;20979;-72
2022/09/12 04:22:54;;;;;;;3.30;1.02;;;;;;;11.56;100.00;98474.38;1729840;83;21011;-72
2022/09/12 04:25:22;;;;;;;3.22;0.90;;;;;;;11.56;100.00;98469.63;1729806;83;20992;-72
2022/09/12 04:27:49;;;;;;;0.40;0.40;;;;;;;11.56;100.00;98473.07;1729781;82;20963;-72
2022/09/12 04:30:16;;;;;;;0.55;0.45;;;;;;;11.56;100.00;98473.53;1709068;83;21201;-72
2022/09/12 04:32:43;;;;;;;2.98;1.00;;;;;;;11.57;100.00;98471.30;1729705;83;20983;-72
2022/09/12 04:35:11;;;;;;;8.20;1.98;;;;;;;11.59;100.00;98470.75;1729874;83;21401;-73
2022/09/12 04:37:37;;;;;;;1.60;0.80;;;;;;;11.59;100.00;98472.05;1729851;82;20959;-73
2022/09/12 04:40:04;;;;;;;1.25;0.95;;;;;;;11.60;100.00;98471.92;1729891;82;20999;-73
2022/09/12 04:42:31;;;;;;;3.75;0.80;;;;;;;11.62;100.00;98478.34;1729675;82;21598;-73
2022/09/12 04:44:58;;;;;;;2.12;0.95;;;;;;;11.63;100.00;98469.61;1729670;83;21435;-72
2022/09/12 04:47:24;;;;;;;2.85;0.85;;;;;;;11.66;100.00;98468.12;1729694;82;21479;-72
2022/09/12 04:49:51;;;;;;;7.25;1.10;;;;;;;11.71;100.00;98476.03;1729798;83;21062;-72
2022/09/12 04:52:17;;;;;;;9.25;1.27;;;;;;;11.75;100.00;98472.77;1729749;82;20999;-72
2022/09/12 04:54:44;;;;;;;13.93;1.80;;;;;;;11.79;100.00;98470.85;1730106;83;21135;-72
2022/09/12 04:57:11;;;;;;;4.10;1.65;;;;;;;11.83;100.00;98467.09;1729629;82;21036;-72
2022/09/12 04:59:38;;;;;;;7.03;1.92;;;;;;;11.89;100.00;98469.33;1729712;83;20947;-72
2022/09/12 05:02:05;;;;;;;7.22;1.45;;;;;;;11.96;100.00;98474.54;1729655;82;21012;-72
2022/09/12 05:04:31;;;;;;;5.62;1.37;;;;;;;12.02;100.00;98474.97;1724304;82;20932;-72
2022/09/12 05:06:59;;;;;;;4.58;1.72;;;;;;;12.10;100.00;98468.45;1729821;82;21033;-73
2022/09/12 05:09:26;;;;;;;4.10;1.20;;;;;;;12.19;100.00;98473.09;1736973;82;21518;-73
2022/09/12 05:11:53;;;;;;;4.78;1.20;;;;;;;12.27;100.00;98465.59;1739469;82;21031;-72
2022/09/12 05:14:19;;;;;;;3.45;1.15;;;;;;;12.36;100.00;98466.33;1722367;82;21069;-73
2022/09/12 05:16:46;;;;;;;4.33;1.22;;;;;;;12.45;100.00;98467.48;1734402;82;21038;-72
2022/09/12 05:19:13;;;;;;;7.47;1.60;;;;;;;12.50;99.69;98467.56;1737127;82;21586;-72
2022/09/12 05:21:39;;;;;;;4.72;1.30;;;;;;;12.58;99.04;98468.37;1700222;84;20878;-72
2022/09/12 05:24:08;;;;;;;2.17;1.00;;;;;;;12.65;98.49;98472.23;1695395;83;21019;-73
2022/09/12 05:26:35;;;;;;;13.03;2.35;;;;;;;12.71;97.74;98466.63;1718869;82;21517;-73
2022/09/12 05:29:03;;;;;;;2.80;1.00;;;;;;;12.81;97.49;98466.83;1737253;82;21067;-73
2022/09/12 05:31:30;;;;;;;3.83;1.40;;;;;;;12.93;97.30;98468.17;1742547;82;21536;-73
2022/09/12 05:33:57;;;;;;;10.23;2.25;;;;;;;13.08;96.63;98470.22;1743360;82;21051;-75
2022/09/12 05:36:26;;;;;;;10.70;1.42;;;;;;;13.23;95.63;98463.14;1734035;81;21020;-75
2022/09/12 05:38:53;;;;;;;9.70;1.40;;;;;;;13.35;94.70;98464.47;1734892;82;20976;-72
2022/09/12 05:41:26;;;;;;;7.05;1.15;;;;;;;13.50;94.00;98454.73;1713553;83;21015;-74
2022/09/12 05:44:00;;;;;;;3.98;0.95;;;;;;;13.60;93.19;98451.83;1731998;82;21172;-74
2022/09/12 05:46:30;;;;;;;1.45;0.98;;;;;;;13.69;92.13;98455.59;1741559;82;20994;-72
2022/09/12 05:48:58;;;;;;;2.35;1.45;;;;;;;13.72;90.30;98461.44;1741144;82;21093;-72
2022/09/12 05:51:30;;;;;;;4.28;1.27;;;;;;;13.70;89.29;98458.09;1674336;85;21067;-72
2022/09/12 05:54:03;;;;;;;5.33;1.40;;;;;;;13.71;89.18;98457.62;1721717;82;21107;-73
2022/09/12 05:56:33;;;;;;;4.30;1.72;;;;;;;13.71;88.63;98464.16;1730588;82;21228;-72
2022/09/12 05:59:02;;;;;;;2.70;1.40;;;;;;;13.67;88.22;98462.23;1731848;82;21640;-73
2022/09/12 06:01:32;;;;;;;5.78;2.20;;;;;;;13.61;87.73;98458.73;1729716;82;32489;-74
2022/09/12 06:04:00;;;;;;;2.27;1.55;;;;;;;13.60;88.09;98463.59;1726584;82;21000;-73
2022/09/12 06:06:27;;;;;;;4.85;2.12;;;;;;;13.61;88.18;98460.03;1737291;82;21072;-73
2022/09/12 06:08:58;;;;;;;2.33;1.40;;;;;;;13.63;88.27;98461.23;1742029;82;21421;-74
2022/09/12 06:11:27;;;;;;;2.05;1.42;;;;;;;13.65;88.20;98460.66;1733183;82;21024;-74
2022/09/12 06:13:55;;;;;;;3.87;1.47;;;;;;;13.67;87.80;98460.92;1742819;82;20992;-69
2022/09/12 06:16:27;;;;;;;4.30;1.20;;;;;;;13.68;87.50;98459.14;1743700;82;21381;-74
2022/09/12 06:19:01;;;;;;;2.45;1.15;;;;;;;13.75;87.47;98461.70;1742846;82;21693;-73
2022/09/12 06:21:30;;;;;;;2.42;1.60;;;;;;;13.85;87.28;98454.03;1740687;82;21157;-72
2022/09/12 06:24:00;;;;;;;3.95;1.57;;;;;;;13.94;86.90;98456.84;1658292;85;21060;-72
2022/09/12 06:26:28;;;;;;;4.47;1.90;;;;;;;14.04;86.67;98455.70;1728624;82;21017;-77
2022/09/12 06:28:56;;;;;;;3.45;1.60;;;;;;;14.14;85.45;98460.17;1735127;82;20951;-75
2022/09/12 06:31:27;;;;;;;2.47;1.30;;;;;;;14.21;85.09;98457.93;1734161;82;21093;-73
2022/09/12 06:33:55;;;;;;;1.45;1.25;;;;;;;14.28;84.18;98458.33;1726012;81;21439;-73
2022/09/12 06:36:25;;;;;;;2.10;1.10;;;;;;;14.29;83.44;98456.91;1719522;83;21135;-72
2022/09/12 06:39:07;;;;;;;4.62;1.35;;;;;;;14.28;82.80;98462.25;1739441;82;21489;-78
2022/09/12 06:41:34;;;;;;;2.83;1.15;;;;;;;14.28;83.00;98462.25;1731003;82;21101;-72
2022/09/12 06:44:01;;;;;;;5.33;1.52;;;;;;;14.28;82.77;98472.25;1729724;82;21151;-74
2022/09/12 06:46:29;;;;;;;2.85;2.00;;;;;;;14.22;82.10;98462.69;1729096;82;21268;-72
2022/09/12 06:48:58;;;;;;;1.62;1.20;;;;;;;14.15;82.93;98457.09;1720798;82;21035;-70
2022/09/12 06:51:27;;;;;;;2.00;1.20;;;;;;;14.15;82.93;98457.09;1725331;82;21050;-75
2022/09/12 06:53:55;;;;;;;1.20;1.10;;;;;;;14.18;82.69;98455.56;1675098;84;21554;-75
2022/09/12 06:56:23;;;;;;;1.37;1.12;;;;;;;14.18;83.64;98460.80;1698121;84;21511;-75
2022/09/12 06:58:50;;;;;;;1.65;1.00;;;;;;;14.18;83.64;98460.80;1698900;83;21900;-73
2022/09/12 07:01:23;;;;;;;1.60;1.20;;;;;;;14.16;84.20;98464.46;1729369;82;21078;-77
2022/09/12 07:03:52;;;;;;;3.42;1.32;;;;;;;14.08;84.76;98459.30;1693778;83;21044;-73
2022/09/12 07:06:21;;;;;;;4.33;1.40;;;;;;;14.06;84.88;98463.80;1728619;83;21527;-75
2022/09/12 07:08:48;;;;;;;1.80;1.40;;;;;;;14.02;85.71;98469.34;1674238;84;21340;-74
2022/09/12 07:11:21;;;;;;;2.95;1.02;;;;;;;14.00;86.40;98468.14;1736845;82;20984;-72
2022/09/12 07:13:50;;;;;;;3.10;1.45;;;;;;;14.05;86.71;98467.36;1728192;82;21048;-73
2022/09/12 07:16:18;;;;;;;1.85;1.32;;;;;;;14.10;87.13;98469.65;1734080;81;21015;-72
2022/09/12 07:18:51;;;;;;;2.00;1.25;;;;;;;14.10;87.02;98465.73;1696012;83;21550;-74
2022/09/12 07:21:18;;;;;;;1.50;1.40;;;;;;;14.08;87.45;98465.83;1733861;82;21047;-73
2022/09/12 07:23:45;;;;;;;4.10;1.70;;;;;;;14.04;87.39;98466.99;1729974;82;22146;-75
2022/09/12 07:26:12;;;;;;;1.62;1.40;;;;;;;14.01;87.11;98463.75;1694997;84;21078;-74
2022/09/12 07:28:40;;;;;;;2.55;1.40;;;;;;;14.01;87.11;98463.75;1704548;82;21445;-77
2022/09/12 07:31:13;;;;;;;5.35;3.30;;;;;;;14.03;87.14;98467.93;1675316;83;21423;-76
2022/09/12 07:33:41;;;;;;;3.67;1.60;;;;;;;14.06;87.70;98461.19;1728373;82;21094;-74
2022/09/12 07:36:16;;;;;;;4.58;2.08;;;;;;;14.08;87.13;98463.69;1729592;82;21158;-74
2022/09/12 07:38:43;;;;;;;3.15;2.08;;;;;;;14.04;86.93;98460.92;1729402;82;21022;-75
2022/09/12 07:41:15;;;;;;;2.20;2.00;;;;;;;14.03;87.23;98466.63;1729480;82;21413;-70
2022/09/12 07:43:42;;;;;;;1.87;1.20;;;;;;;14.00;87.24;98459.00;1730408;82;21084;-71
2022/09/12 07:46:09;;;;;;;1.47;1.00;;;;;;;13.97;86.11;98461.86;1722514;80;21058;-73
2022/09/12 07:48:37;;;;;;;0.85;0.82;;;;;;;13.91;85.11;98463.59;1731310;82;21604;-76
2022/09/12 07:51:07;;;;;;;1.40;1.10;;;;;;;13.82;85.10;98469.92;1695742;83;21556;-74
2022/09/12 07:53:37;;;;;;;1.25;1.00;;;;;;;13.72;85.66;98474.98;1663719;85;21031;-74
2022/09/12 07:56:04;;;;;;;15.72;6.47;;;;;;;13.67;86.20;98466.62;1726502;82;21069;-71
2022/09/12 07:58:32;;;;;;;1.70;0.95;;;;;;;13.61;86.70;98469.17;1722745;82;21037;-76
2022/09/12 08:01:09;;;;;;;1.00;0.90;;;;;;;13.55;87.02;98476.16;1729228;82;21250;-77
2022/09/12 08:03:37;;;;;;;1.07;0.70;;;;;;;13.50;86.79;98474.33;1723927;82;21573;-74
2022/09/12 08:06:07;;;;;;;0.75;0.53;;;;;;;13.38;87.28;98469.48;1729351;82;21155;-75
2022/09/12 08:08:35;;;;;;;0.75;0.50;;;;;;;13.31;87.30;98479.98;1731385;82;21030;-77
2022/09/12 08:11:08;;;;;;;0.75;0.65;;;;;;;13.20;87.68;98472.48;1699956;83;21527;-74
2022/09/12 08:13:37;;;;;;;3.67;1.25;;;;;;;13.09;88.35;98472.73;1659203;85;21311;-74
2022/09/12 08:16:07;;;;;;;0.55;0.47;;;;;;;13.02;88.51;98474.53;1696412;83;21252;-72
2022/09/12 08:18:35;;;;;;;1.30;0.57;;;;;;;12.95;88.69;98472.83;1667858;85;21050;-72
2022/09/12 08:21:05;;;;;;;1.27;0.55;;;;;;;12.90;89.25;98474.91;1668045;85;21062;-72
2022/09/12 08:23:32;;;;;;;0.53;0.53;;;;;;;12.91;90.07;98475.73;1670361;85;21082;-71
2022/09/12 08:26:01;;;;;;;1.57;0.80;;;;;;;12.88;90.10;98478.55;1673025;85;21182;-70
2022/09/12 08:28:29;;;;;;;0.65;0.40;;;;;;;12.85;90.25;98472.22;1668989;84;21002;-71
2022/09/12 08:31:03;;;;;;;3.30;0.60;;;;;;;12.86;90.26;98477.81;1667793;85;21065;-75
2022/09/12 08:33:33;;;;;;;2.15;1.00;;;;;;;12.85;90.36;98471.75;1735468;82;21038;-75
2022/09/12 08:36:09;;;;;;;1.12;0.65;;;;;;;12.87;90.50;98474.27;1697584;83;21127;-74
2022/09/12 08:38:38;;;;;;;3.05;1.25;;;;;;;12.89;90.90;98473.70;1735472;82;21349;-76
2022/09/12 08:41:41;;;;;;;1.47;1.15;;;;;;;12.97;91.53;98470.12;1698712;83;21989;-75
2022/09/12 08:44:57;;;;;;;1.03;0.73;;;;;;;13.14;91.36;98474.20;1669842;84;21057;-77
2022/09/12 08:47:31;;;;;;;3.80;1.50;;;;;;;13.33;90.99;98465.52;1703547;82;21107;-76
2022/09/12 08:50:16;;;;;;;;;;;;;;;13.58;90.17;98470.72;1702359;82;21162;-75
2022/09/12 08:53:11;;;;;;;3.27;1.00;;;;;;;13.77;88.83;98470.27;1684870;83;21123;-77
2022/09/12 08:55:52;;;;;;;2.27;1.10;;;;;;;13.95;88.32;98469.44;1702225;83;21022;-72
2022/09/12 08:58:22;;;;;;;8.88;1.90;;;;;;;14.08;87.19;98467.14;1707655;83;20957;-71
2022/09/12 09:01:27;;;;;;;6.45;1.37;;;;;;;14.12;86.50;98466.45;1698002;83;21004;-70
2022/09/12 09:04:26;;;;;;;3.22;1.10;;;;;;;14.09;86.17;98464.89;1685015;83;21035;-71
2022/09/12 09:07:20;;;;;;;4.28;1.17;;;;;;;14.04;86.10;98467.46;1698806;83;21157;-72
2022/09/12 09:10:09;;;;;;;3.15;1.20;;;;;;;14.04;84.62;98470.08;1693073;83;21041;-72
2022/09/12 09:12:48;;;;;;;3.40;0.85;;;;;;;14.09;83.61;98473.20;1700452;83;21009;-72
2022/09/12 09:15:47;;;;;;;1.50;0.90;;;;;;;14.13;83.02;98470.27;1712385;82;22082;-72
2022/09/12 09:18:22;;;;;;;5.12;0.98;;;;;;;14.14;81.89;98470.63;1706013;82;21556;-73
2022/09/12 09:21:05;;;;;;;1.35;0.60;;;;;;;14.14;81.20;98468.48;1718338;82;21285;-74
2022/09/12 09:23:38;;;;;;;;;;;;;;;14.12;80.53;98469.91;1618616;86;21592;-77
2022/09/12 09:26:15;;;;;;;1.17;0.80;;;;;;;14.03;80.56;98469.24;1701797;83;20206;-77
2022/09/12 09:28:52;;;;;;;3.58;0.82;;;;;;;13.97;80.35;98472.31;1702164;83;21014;-75
2022/09/12 09:31:21;;;;;;;0.65;0.65;;;;;;;13.84;81.98;98475.41;1696796;83;21489;-75
2022/09/12 09:33:55;;;;;;;0.93;0.90;;;;;;;13.78;83.15;98475.86;1698965;83;21810;-72
2022/09/12 09:36:56;;;;;;;1.15;0.60;;;;;;;13.78;83.15;98475.86;1698413;83;20994;-71
2022/09/12 09:39:29;;;;;;;1.80;0.85;;;;;;;13.76;83.13;98475.97;1701703;83;21047;-76
2022/09/12 09:42:22;;;;;;;4.90;1.00;;;;;;;13.74;83.74;98475.23;1693827;83;21081;-75
2022/09/12 09:44:48;;;;;;;4.60;1.90;;;;;;;13.70;83.84;98469.86;1711352;83;21011;-74
2022/09/12 09:47:15;;;;;;;4.42;1.30;;;;;;;13.66;84.02;98473.62;1730341;82;21315;-73
2022/09/12 09:49:41;;;;;;;2.85;1.15;;;;;;;13.62;84.17;98477.84;1713052;82;21047;-74
2022/09/12 09:52:10;;;;;;;7.70;1.95;;;;;;;13.58;84.80;98479.03;1728924;82;21037;-75
2022/09/12 09:54:40;;;;;;;1.95;0.82;;;;;;;13.57;85.56;98474.75;1694363;84;21032;-75
2022/09/12 09:57:40;;;;;;;2.12;1.20;;;;;;;13.60;85.51;98477.95;1718655;82;21082;-76
2022/09/12 10:00:34;;;;;;;1.55;0.90;;;;;;;13.63;85.17;98482.13;1726754;82;21564;-75
2022/09/12 10:03:07;;;;;;;;;;;;;;;13.65;85.23;98483.70;1696116;83;20965;-74
2022/09/12 10:05:45;;;;;;;1.47;1.17;;;;;;;13.67;85.31;98477.91;1693795;83;20181;-74
2022/09/12 10:08:26;;;;;;;6.47;1.50;;;;;;;13.72;85.33;98485.43;1693092;84;21016;-75
2022/09/12 10:11:00;;;;;;;14.68;1.60;;;;;;;13.84;85.43;98482.42;1693277;84;21330;-70
2022/09/12 10:13:38;;;;;;;3.67;1.60;;;;;;;14.04;84.68;98479.23;1728892;83;21300;-76
2022/09/12 10:16:19;;;;;;;2.08;0.90;;;;;;;14.24;84.13;98483.03;1725061;82;21021;-76
2022/09/12 10:18:46;;;;;;;4.47;1.20;;;;;;;14.44;83.26;98478.06;1695301;84;21117;-75
2022/09/12 10:21:23;;;;;;;2.08;0.80;;;;;;;14.65;82.59;98482.20;1651168;86;21804;-73
2022/09/12 10:24:22;;;;;;;6.05;1.17;;;;;;;14.81;81.98;98487.13;1718721;82;21046;-76
2022/09/12 10:27:14;;;;;;;3.27;1.00;;;;;;;14.93;81.29;98488.02;1694890;83;21247;-74
2022/09/12 10:29:47;;;;;;;2.47;1.00;;;;;;;15.03;80.78;98485.88;1678018;83;20986;-73
2022/09/12 10:32:28;;;;;;;1.98;1.00;;;;;;;15.10;80.60;98483.17;1719740;82;21014;-73
2022/09/12 10:35:01;;;;;;;5.72;1.60;;;;;;;15.20;80.31;98489.01;1685081;82;21073;-75
2022/09/12 10:37:38;;;;;;;0.88;0.70;;;;;;;15.30;79.29;98492.14;1716534;82;21053;-72
2022/09/12 10:40:09;;;;;;;1.57;0.82;;;;;;;15.40;78.68;98487.02;1716824;83;21620;-75
2022/09/12 10:42:56;;;;;;;1.27;0.60;;;;;;;15.50;77.42;98485.38;1654473;85;21025;-74
2022/09/12 10:45:36;;;;;;;1.55;0.85;;;;;;;15.48;76.57;98490.73;1705725;83;21549;-72
2022/09/12 10:48:31;;;;;;;0.70;0.70;;;;;;;15.43;75.85;98492.86;1639733;87;21050;-75
2022/09/12 10:50:59;;;;;;;5.78;1.20;;;;;;;15.33;75.86;98487.98;1639848;87;21137;-76
2022/09/12 10:53:28;;;;;;;0.80;0.75;;;;;;;15.22;76.13;98491.87;1662414;84;21891;-75
2022/09/12 10:56:06;;;;;;;4.17;1.12;;;;;;;15.14;76.30;98490.33;1681989;84;21097;-73
2022/09/12 10:59:07;;;;;;;1.55;0.72;;;;;;;15.02;76.19;98491.23;1693606;83;21110;-71
2022/09/12 11:01:52;;;;;;;1.77;0.90;;;;;;;14.91;76.65;98492.05;1699164;83;21548;-72
2022/09/12 11:04:39;;;;;;;2.45;0.90;;;;;;;14.80;77.45;98499.37;1699128;83;21159;-74
2022/09/12 11:07:36;;;;;;;1.85;1.20;;;;;;;14.78;78.08;98493.92;1702746;83;21282;-75
2022/09/12 11:10:16;;;;;;;5.15;1.20;;;;;;;14.77;78.16;98494.39;1697397;84;21188;-74
2022/09/12 11:13:22;;;;;;;2.33;1.57;;;;;;;14.71;78.08;98492.22;1700522;84;21055;-77
2022/09/12 11:16:15;;;;;;;4.22;1.77;;;;;;;14.61;78.01;98485.98;1699011;83;21074;-73
2022/09/12 11:19:33;;;;;;;1.35;1.25;;;;;;;14.54;78.43;98495.25;1679727;84;21073;-75
2022/09/12 11:22:22;;;;;;;1.47;1.30;;;;;;;14.43;78.81;98496.01;1682738;84;21964;-74
2022/09/12 11:25:15;;;;;;;1.50;1.30;;;;;;;14.31;79.30;98494.27;1699675;84;21035;-75
2022/09/12 11:28:06;;;;;;;1.70;1.30;;;;;;;14.25;79.89;98497.30;1700234;84;21057;-74
2022/09/12 11:31:04;;;;;;;1.82;1.65;;;;;;;14.19;79.69;98496.43;1696652;83;21109;-73
2022/09/12 11:33:43;;;;;;;3.80;1.75;;;;;;;14.10;79.44;98498.41;1700780;84;21045;-74
2022/09/12 11:36:24;;;;;;;7.33;2.08;;;;;;;14.00;80.02;98498.21;1699585;83;21150;-71
2022/09/12 11:39:05;;;;;;;2.90;2.10;;;;;;;13.90;81.06;98502.44;1639143;87;21105;-71
2022/09/12 11:41:35;;;;;;;1.92;1.65;;;;;;;13.78;82.06;98502.83;1699063;84;21684;-70
2022/09/12 11:44:34;;;;;;;1.95;1.70;;;;;;;13.78;82.06;98502.83;1700192;83;21360;-69
2022/09/12 11:47:02;;;;;;;2.55;1.47;;;;;;;13.80;82.27;98503.53;1726351;82;21515;-72
2022/09/12 11:49:51;;;;;;;2.90;1.70;;;;;;;13.84;82.75;98503.33;1724455;82;21358;-71
2022/09/12 11:52:21;;;;;;;6.20;1.98;;;;;;;14.07;83.28;98502.55;1698526;83;21082;-71
2022/09/12 11:55:11;;;;;;;2.45;1.60;;;;;;;14.07;83.28;98502.55;1711375;82;21675;-71
2022/09/12 11:57:49;;;;;;;2.33;1.50;;;;;;;14.21;82.13;98493.70;1710606;82;21011;-70
2022/09/12 12:00:27;;;;;;;3.05;1.50;;;;;;;14.38;79.37;98492.88;1727824;82;20992;-72
2022/09/12 12:03:27;;;;;;;2.70;1.12;;;;;;;14.38;79.37;98492.88;1729774;82;21245;-71
2022/09/12 12:06:08;;;;;;;2.87;1.47;;;;;;;14.48;78.89;98490.45;1706548;82;20954;-72
2022/09/12 12:08:40;;;;;;;4.62;2.58;;;;;;;14.50;78.06;98495.10;1702347;83;21070;-71